Time;durP1;ratioP1;P1;durP2;ratioP2;P2;SDS_P1;SDS_P2;PMS_P1;PMS_P2;Temp;Humidity;BMP_temperature;BMP_pressure;BME280_temperature;BME280_humidity;BME280_pressure;Samples;Min_cycle;Max_cycle;Signal;HPM_P1;HPM_P2
2022/07/29 00:02:25;;;;;;;17.83;6.72;;;28.20;99.90;;;;;;5051848;28;20481;-48
2022/07/29 00:04:50;;;;;;;21.45;6.88;;;28.10;99.90;;;;;;5053918;28;20090;-50
2022/07/29 00:07:16;;;;;;;21.73;6.95;;;28.00;99.90;;;;;;5053071;28;20478;-48
2022/07/29 00:09:42;;;;;;;25.20;7.05;;;27.90;99.90;;;;;;5052808;28;20104;-48
2022/07/29 00:12:08;;;;;;;15.25;6.72;;;27.90;99.90;;;;;;5050635;28;20263;-48
2022/07/29 00:14:34;;;;;;;31.17;7.87;;;27.80;99.90;;;;;;5052235;28;20037;-48
2022/07/29 00:17:00;;;;;;;20.38;7.43;;;27.80;99.90;;;;;;5052565;28;20104;-48
2022/07/29 00:19:26;;;;;;;21.63;6.00;;;27.70;99.90;;;;;;5052350;28;20507;-47
2022/07/29 00:21:52;;;;;;;17.92;6.13;;;27.70;99.90;;;;;;5033388;28;20025;-48
2022/07/29 00:24:17;;;;;;;10.48;4.78;;;27.70;99.90;;;;;;5021593;28;20509;-48
2022/07/29 00:26:43;;;;;;;18.25;5.90;;;27.60;99.90;;;;;;5051249;28;20033;-48
2022/07/29 00:29:09;;;;;;;27.63;6.35;;;27.60;99.90;;;;;;5050165;28;20028;-48
2022/07/29 00:31:35;;;;;;;17.05;5.65;;;27.60;99.90;;;;;;5048101;28;20025;-48
2022/07/29 00:34:00;;;;;;;16.55;4.90;;;27.60;99.90;;;;;;5050918;28;20396;-48
2022/07/29 00:36:26;;;;;;;16.33;5.90;;;27.50;99.90;;;;;;5051351;28;20421;-48
2022/07/29 00:38:52;;;;;;;20.58;5.63;;;27.50;99.90;;;;;;5051729;28;20021;-48
2022/07/29 00:41:19;;;;;;;17.80;5.70;;;27.50;99.90;;;;;;5051691;28;20125;-48
2022/07/29 00:43:45;;;;;;;18.30;5.53;;;27.60;99.90;;;;;;5051520;28;20029;-47
2022/07/29 00:46:11;;;;;;;16.93;5.07;;;27.50;99.90;;;;;;5051385;28;20126;-47
2022/07/29 00:48:38;;;;;;;14.20;3.72;;;27.50;99.90;;;;;;5050951;28;20029;-47
2022/07/29 00:51:07;;;;;;;10.40;3.53;;;27.50;99.90;;;;;;5051591;28;20108;-47
2022/07/29 00:53:35;;;;;;;14.60;4.10;;;27.50;99.90;;;;;;5051511;28;20033;-48
2022/07/29 00:56:00;;;;;;;;;;;27.50;99.90;;;;;;5046622;28;20017;-47
2022/07/29 00:58:26;;;;;;;12.95;2.95;;;27.40;99.90;;;;;;5049408;28;20253;-47
2022/07/29 01:00:53;;;;;;;15.40;4.38;;;27.40;99.90;;;;;;5052545;28;20021;-47
2022/07/29 01:03:18;;;;;;;14.02;3.58;;;27.40;99.90;;;;;;5059642;28;20476;-48
2022/07/29 01:05:46;;;;;;;10.32;2.92;;;27.40;99.90;;;;;;5049410;28;20100;-48
2022/07/29 01:08:15;;;;;;;9.52;2.88;;;27.40;99.90;;;;;;5045022;28;20037;-48
2022/07/29 01:10:43;;;;;;;9.48;2.30;;;27.40;99.90;;;;;;5043417;28;20021;-48
2022/07/29 01:13:10;;;;;;;9.43;2.97;;;27.40;99.90;;;;;;5032652;28;20524;-48
2022/07/29 01:15:52;;;;;;;11.48;3.40;;;27.40;99.90;;;;;;5032592;28;20052;-48
2022/07/29 01:18:30;;;;;;;7.30;2.92;;;27.40;99.90;;;;;;5032710;28;20025;-47
2022/07/29 01:21:26;;;;;;;11.13;3.60;;;27.40;99.90;;;;;;5032487;28;20108;-48
2022/07/29 01:24:16;;;;;;;10.93;3.05;;;27.40;99.90;;;;;;5034207;28;21379;-48
2022/07/29 01:27:08;;;;;;;11.00;2.70;;;27.40;99.90;;;;;;5046921;28;20485;-48
2022/07/29 01:29:48;;;;;;;9.45;3.03;;;27.40;99.90;;;;;;5032116;28;20474;-48
2022/07/29 01:32:19;;;;;;;10.27;3.05;;;27.40;99.90;;;;;;5041769;28;20021;-48
2022/07/29 01:34:48;;;;;;;12.25;2.85;;;27.40;99.90;;;;;;5049578;28;20045;-48
2022/07/29 01:37:27;;;;;;;10.48;2.72;;;27.40;99.90;;;;;;5051802;28;20021;-47
2022/07/29 01:39:57;;;;;;;11.00;2.67;;;27.40;99.90;;;;;;5052272;28;20021;-48
2022/07/29 01:42:41;;;;;;;8.68;2.63;;;27.40;99.90;;;;;;5034499;28;20021;-48
2022/07/29 01:45:19;;;;;;;10.45;3.10;;;27.40;99.90;;;;;;5050692;28;20024;-48
2022/07/29 01:48:05;;;;;;;7.78;2.83;;;27.40;99.90;;;;;;5034298;28;20488;-48
2022/07/29 01:50:35;;;;;;;8.40;2.75;;;27.40;99.90;;;;;;5052135;28;20036;-47
2022/07/29 01:53:08;;;;;;;8.00;3.53;;;27.40;99.90;;;;;;5052247;28;20497;-48
2022/07/29 01:55:40;;;;;;;8.05;2.97;;;27.40;99.90;;;;;;5052037;28;20401;-48
2022/07/29 01:58:08;;;;;;;10.63;2.80;;;27.40;99.90;;;;;;5051891;28;20037;-48
2022/07/29 02:00:35;;;;;;;9.45;3.40;;;27.40;99.90;;;;;;5052410;28;20101;-48
2022/07/29 02:03:07;;;;;;;9.68;3.10;;;27.40;99.90;;;;;;5051749;28;20063;-48
2022/07/29 02:05:34;;;;;;;14.25;3.13;;;27.40;99.90;;;;;;5033982;28;20074;-48
2022/07/29 02:08:02;;;;;;;13.15;3.30;;;27.40;99.90;;;;;;5051635;28;20035;-48
2022/07/29 02:10:31;;;;;;;10.95;3.90;;;27.30;99.90;;;;;;5051688;28;20469;-48
2022/07/29 02:12:59;;;;;;;10.60;3.33;;;27.30;99.90;;;;;;5051625;28;20112;-49
2022/07/29 02:15:28;;;;;;;7.82;2.90;;;27.40;99.90;;;;;;5051791;28;20037;-49
2022/07/29 02:18:01;;;;;;;9.27;3.65;;;27.30;99.90;;;;;;5034088;28;20035;-49
2022/07/29 02:20:28;;;;;;;11.68;3.42;;;27.30;99.90;;;;;;5051561;28;20033;-49
2022/07/29 02:22:55;;;;;;;13.88;3.38;;;27.30;99.90;;;;;;5051722;28;20020;-49
2022/07/29 02:25:23;;;;;;;7.68;2.97;;;27.30;99.90;;;;;;5051679;28;20033;-49
2022/07/29 02:27:51;;;;;;;14.30;3.33;;;27.30;99.90;;;;;;5051355;28;20492;-49
2022/07/29 02:30:17;;;;;;;;;;;27.30;99.90;;;;;;5051783;28;20059;-50
2022/07/29 02:32:45;;;;;;;15.30;3.28;;;27.20;99.90;;;;;;5051512;28;20280;-49
2022/07/29 02:35:12;;;;;;;;;;;27.20;99.90;;;;;;5051900;28;20033;-49
2022/07/29 02:37:39;;;;;;;16.00;4.03;;;27.20;99.90;;;;;;5051289;28;19912;-49
2022/07/29 02:40:10;;;;;;;14.35;3.30;;;27.20;99.90;;;;;;5051245;28;20025;-49
2022/07/29 02:42:38;;;;;;;10.82;3.22;;;27.20;99.90;;;;;;5051142;28;20098;-49
2022/07/29 02:45:07;;;;;;;10.85;3.40;;;27.10;99.90;;;;;;5051141;28;20129;-49
2022/07/29 02:47:41;;;;;;;13.13;3.88;;;27.10;99.90;;;;;;5051152;28;20548;-49
2022/07/29 02:50:11;;;;;;;15.63;4.47;;;27.10;99.90;;;;;;5051122;28;20028;-49
2022/07/29 02:52:49;;;;;;;11.45;4.40;;;27.10;99.90;;;;;;5051102;28;20024;-49
2022/07/29 02:55:40;;;;;;;11.55;3.25;;;27.10;99.90;;;;;;5051208;28;20044;-49
2022/07/29 02:58:21;;;;;;;13.95;4.15;;;27.20;99.90;;;;;;5051109;28;20271;-49
2022/07/29 03:00:48;;;;;;;14.65;3.90;;;27.10;99.90;;;;;;5039265;22;20065;-46
2022/07/29 03:03:17;;;;;;;13.30;3.28;;;27.10;99.90;;;;;;5010176;28;20394;-46
2022/07/29 03:05:43;;;;;;;13.73;4.45;;;27.10;99.90;;;;;;5011393;28;20087;-46
2022/07/29 03:08:12;;;;;;;16.80;4.10;;;27.10;99.90;;;;;;5011490;28;20417;-46
2022/07/29 03:10:40;;;;;;;10.23;3.75;;;27.10;99.90;;;;;;5010108;28;20470;-47
2022/07/29 03:13:07;;;;;;;10.63;3.88;;;27.10;99.90;;;;;;5011205;28;20048;-47
2022/07/29 03:15:34;;;;;;;9.88;3.60;;;27.10;99.90;;;;;;5011368;28;20112;-47
2022/07/29 03:18:01;;;;;;;10.18;3.20;;;27.10;99.90;;;;;;5011333;28;20095;-47
2022/07/29 03:20:27;;;;;;;11.32;4.07;;;27.10;99.90;;;;;;5011484;28;20471;-46
2022/07/29 03:22:53;;;;;;;12.18;4.07;;;27.10;99.90;;;;;;5011207;28;20022;-46
2022/07/29 03:25:19;;;;;;;12.40;3.88;;;27.10;99.90;;;;;;5011086;28;20036;-47
2022/07/29 03:27:47;;;;;;;15.93;4.15;;;27.10;99.90;;;;;;5011223;28;20037;-47
2022/07/29 03:30:14;;;;;;;12.73;3.75;;;27.10;99.90;;;;;;5011077;28;20076;-47
2022/07/29 03:32:41;;;;;;;15.35;4.13;;;27.00;99.90;;;;;;5011107;28;20455;-47
2022/07/29 03:35:08;;;;;;;10.57;3.72;;;27.00;99.90;;;;;;5009996;28;20041;-47
2022/07/29 03:37:36;;;;;;;13.60;4.77;;;27.00;99.90;;;;;;5011031;28;20034;-47
2022/07/29 03:40:06;;;;;;;18.08;3.65;;;27.00;99.90;;;;;;5011065;28;20478;-46
2022/07/29 03:42:35;;;;;;;12.10;4.03;;;27.00;99.90;;;;;;5010978;28;20030;-47
2022/07/29 03:45:05;;;;;;;14.10;3.97;;;27.00;99.90;;;;;;5009831;28;20113;-46
2022/07/29 03:47:34;;;;;;;9.60;3.88;;;27.00;99.90;;;;;;5009889;28;20040;-47
2022/07/29 03:50:05;;;;;;;12.07;4.45;;;27.00;99.90;;;;;;5011390;28;20061;-47
2022/07/29 03:52:31;;;;;;;12.38;4.00;;;27.10;99.90;;;;;;5011264;28;20161;-46
2022/07/29 03:54:57;;;;;;;17.17;4.65;;;27.10;99.90;;;;;;5011228;28;20069;-47
2022/07/29 03:57:28;;;;;;;16.05;5.18;;;27.10;99.90;;;;;;5012716;28;20022;-47
2022/07/29 03:59:55;;;;;;;16.33;5.07;;;27.10;99.90;;;;;;5031020;23;20382;-46
2022/07/29 04:02:21;;;;;;;15.82;3.97;;;27.10;99.90;;;;;;5034722;28;20072;-49
2022/07/29 04:04:47;;;;;;;17.92;4.60;;;27.10;99.90;;;;;;5034196;28;20034;-49
2022/07/29 04:07:14;;;;;;;17.05;4.43;;;27.00;99.90;;;;;;5034200;28;20539;-49
2022/07/29 04:09:40;;;;;;;11.43;4.28;;;27.00;99.90;;;;;;5034284;28;20036;-49
2022/07/29 04:12:07;;;;;;;12.55;4.25;;;27.00;99.90;;;;;;5034098;28;20033;-49
2022/07/29 04:14:34;;;;;;;18.45;4.10;;;27.00;99.90;;;;;;5034022;28;20038;-49
2022/07/29 04:17:01;;;;;;;14.00;4.03;;;27.00;99.90;;;;;;5034321;28;20021;-48
2022/07/29 04:19:27;;;;;;;10.13;4.07;;;27.00;99.90;;;;;;5034027;28;20435;-48
2022/07/29 04:21:52;;;;;;;10.40;3.88;;;27.00;99.90;;;;;;5032615;28;20041;-48
2022/07/29 04:24:18;;;;;;;13.40;3.63;;;27.00;99.90;;;;;;5033746;28;20168;-49
2022/07/29 04:26:46;;;;;;;12.07;4.00;;;27.00;99.90;;;;;;5033774;28;20025;-48
2022/07/29 04:29:13;;;;;;;;;;;27.00;99.90;;;;;;5034265;28;20025;-49
2022/07/29 04:31:40;;;;;;;15.43;3.97;;;27.00;99.90;;;;;;5033670;28;20005;-49
2022/07/29 04:34:06;;;;;;;41.00;5.82;;;27.10;99.90;;;;;;5033654;28;20040;-49
2022/07/29 04:36:32;;;;;;;11.50;4.93;;;27.10;99.90;;;;;;5033780;28;20053;-49
2022/07/29 04:38:58;;;;;;;13.50;4.78;;;27.10;99.90;;;;;;5033735;28;20030;-48
2022/07/29 04:41:24;;;;;;;12.32;4.10;;;27.10;99.90;;;;;;5033495;28;20031;-48
2022/07/29 04:43:50;;;;;;;16.55;4.53;;;27.10;99.90;;;;;;5033647;28;20108;-48
2022/07/29 04:46:15;;;;;;;15.05;4.25;;;27.10;99.90;;;;;;5033417;28;20373;-49
2022/07/29 04:48:41;;;;;;;8.27;4.07;;;27.10;99.90;;;;;;5033613;28;20091;-49
2022/07/29 04:51:07;;;;;;;11.63;4.13;;;27.00;99.90;;;;;;5033347;28;20369;-48
2022/07/29 04:53:33;;;;;;;12.00;4.03;;;27.10;99.90;;;;;;5033416;28;20044;-48
2022/07/29 04:55:58;;;;;;;12.98;3.58;;;27.10;99.90;;;;;;5033297;28;20030;-49
2022/07/29 04:58:24;;;;;;;11.40;3.60;;;27.00;99.90;;;;;;5033258;28;20048;-49
2022/07/29 05:00:51;;;;;;;13.15;4.15;;;27.10;99.90;;;;;;5032887;28;20128;-49
2022/07/29 05:03:17;;;;;;;10.45;3.80;;;27.10;99.90;;;;;;5033014;28;20432;-49
2022/07/29 05:05:42;;;;;;;14.60;4.85;;;27.00;99.90;;;;;;5033092;28;20021;-49
2022/07/29 05:08:08;;;;;;;11.35;4.25;;;27.10;99.90;;;;;;5031965;28;20347;-49
2022/07/29 05:10:37;;;;;;;13.55;3.83;;;27.00;99.90;;;;;;5048454;28;20033;-49
2022/07/29 05:13:06;;;;;;;18.17;4.65;;;27.00;99.90;;;;;;5032977;28;20069;-49
2022/07/29 05:15:32;;;;;;;16.33;4.30;;;27.00;99.90;;;;;;5033170;28;20096;-49
2022/07/29 05:17:58;;;;;;;13.85;3.72;;;27.00;99.90;;;;;;5032880;28;20212;-48
2022/07/29 05:20:27;;;;;;;13.70;4.72;;;27.00;99.90;;;;;;5033051;28;20150;-49
2022/07/29 05:22:57;;;;;;;16.02;5.05;;;27.00;99.90;;;;;;5032737;28;20021;-49
2022/07/29 05:25:24;;;;;;;15.77;4.43;;;27.00;99.90;;;;;;5032699;28;20084;-48
2022/07/29 05:27:50;;;;;;;14.90;5.30;;;26.90;99.90;;;;;;5032935;28;20062;-49
2022/07/29 05:30:16;;;;;;;9.60;4.15;;;26.90;99.90;;;;;;5032624;28;20076;-49
2022/07/29 05:32:42;;;;;;;10.02;3.72;;;26.90;99.90;;;;;;5047849;28;20117;-49
2022/07/29 05:35:08;;;;;;;8.80;3.60;;;26.90;99.90;;;;;;5032849;28;20033;-48
2022/07/29 05:37:34;;;;;;;13.55;3.53;;;26.90;99.90;;;;;;5032876;28;20377;-48
2022/07/29 05:39:59;;;;;;;12.32;3.90;;;26.90;99.90;;;;;;5032570;28;20025;-48
2022/07/29 05:42:26;;;;;;;11.23;3.63;;;26.90;99.90;;;;;;5032505;28;20025;-48
2022/07/29 05:44:53;;;;;;;11.60;3.25;;;26.90;99.90;;;;;;5032323;28;20029;-48
2022/07/29 05:47:19;;;;;;;12.60;4.25;;;26.90;99.90;;;;;;5032324;28;20056;-48
2022/07/29 05:49:45;;;;;;;16.48;5.47;;;26.90;99.90;;;;;;5032251;28;20057;-48
2022/07/29 05:52:12;;;;;;;25.23;4.75;;;26.90;99.90;;;;;;5032116;28;20028;-49
2022/07/29 05:54:39;;;;;;;23.65;5.55;;;26.90;99.90;;;;;;5032229;28;20045;-49
2022/07/29 05:57:05;;;;;;;25.90;5.78;;;26.90;99.90;;;;;;5032205;28;20132;-48
2022/07/29 05:59:31;;;;;;;18.88;5.43;;;26.90;99.90;;;;;;5031840;28;20108;-47
2022/07/29 06:01:57;;;;;;;26.73;6.28;;;26.90;99.90;;;;;;5031962;28;20051;-48
2022/07/29 06:04:23;;;;;;;23.95;5.53;;;26.90;99.90;;;;;;5031793;28;20083;-47
2022/07/29 06:06:49;;;;;;;24.77;5.75;;;26.90;99.90;;;;;;5031707;28;20444;-47
2022/07/29 06:09:14;;;;;;;20.52;4.85;;;26.90;99.90;;;;;;5031768;28;20022;-48
2022/07/29 06:11:41;;;;;;;21.55;4.93;;;26.90;99.90;;;;;;5031930;28;20117;-48
2022/07/29 06:14:07;;;;;;;17.63;4.97;;;26.90;99.90;;;;;;5031617;28;20441;-48
2022/07/29 06:16:32;;;;;;;12.93;4.40;;;26.90;99.90;;;;;;5031691;28;20056;-47
2022/07/29 06:18:58;;;;;;;13.77;5.07;;;26.90;99.90;;;;;;5031431;28;20474;-47
2022/07/29 06:21:24;;;;;;;14.90;5.45;;;26.90;99.90;;;;;;5031194;28;20025;-47
2022/07/29 06:23:49;;;;;;;12.60;4.85;;;27.00;99.90;;;;;;5031510;28;20541;-47
2022/07/29 06:26:16;;;;;;;14.68;4.43;;;27.00;99.90;;;;;;5031369;28;20057;-48
2022/07/29 06:28:41;;;;;;;16.45;5.00;;;27.00;99.90;;;;;;5046896;28;20029;-47
2022/07/29 06:31:07;;;;;;;13.55;4.93;;;27.00;99.90;;;;;;5031839;28;20090;-48
2022/07/29 06:33:33;;;;;;;16.38;5.43;;;27.00;99.90;;;;;;5031258;28;20033;-47
2022/07/29 06:35:59;;;;;;;14.45;5.28;;;27.00;99.90;;;;;;5031475;28;20029;-47
2022/07/29 06:38:25;;;;;;;11.73;4.53;;;27.10;99.90;;;;;;5031312;28;20025;-47
2022/07/29 06:40:59;;;;;;;13.50;4.63;;;27.10;99.90;;;;;;5031418;28;20474;-47
2022/07/29 06:43:37;;;;;;;14.55;4.88;;;27.10;99.90;;;;;;5031352;28;20013;-47
2022/07/29 06:46:05;;;;;;;;;;;27.10;99.90;;;;;;5030334;28;20030;-47
2022/07/29 06:48:31;;;;;;;14.43;4.78;;;27.20;99.90;;;;;;5031285;28;19905;-48
2022/07/29 06:50:57;;;;;;;14.75;4.95;;;27.20;99.90;;;;;;5031227;28;20041;-48
2022/07/29 06:53:23;;;;;;;13.85;4.88;;;27.20;99.90;;;;;;5031112;28;20033;-48
2022/07/29 06:55:49;;;;;;;21.95;5.63;;;27.30;99.90;;;;;;5031311;28;20018;-47
2022/07/29 06:58:17;;;;;;;11.77;5.00;;;27.20;99.90;;;;;;5031127;28;20382;-48
2022/07/29 07:00:44;;;;;;;14.10;4.75;;;27.30;99.90;;;;;;5031287;28;20406;-48
2022/07/29 07:03:10;;;;;;;13.60;4.88;;;27.30;99.90;;;;;;5031465;28;20029;-48
2022/07/29 07:05:36;;;;;;;18.02;5.07;;;27.40;99.90;;;;;;5031116;28;20087;-47
2022/07/29 07:08:02;;;;;;;18.20;4.57;;;27.40;99.90;;;;;;5031140;28;20473;-47
2022/07/29 07:10:28;;;;;;;17.50;5.00;;;27.40;99.90;;;;;;5031026;28;20377;-48
2022/07/29 07:12:53;;;;;;;22.58;6.45;;;27.50;99.90;;;;;;5031063;28;20033;-48
2022/07/29 07:15:22;;;;;;;13.65;3.78;;;27.50;99.90;;;;;;5030960;28;20060;-48
2022/07/29 07:17:49;;;;;;;16.38;5.13;;;27.50;99.90;;;;;;5030986;28;20105;-48
2022/07/29 07:20:15;;;;;;;9.73;4.25;;;27.50;99.90;;;;;;5031109;28;20032;-47
2022/07/29 07:22:41;;;;;;;11.57;4.37;;;27.60;99.90;;;;;;5031217;28;20021;-48
2022/07/29 07:25:07;;;;;;;15.75;4.15;;;27.60;99.90;;;;;;5030823;28;20273;-48
2022/07/29 07:27:33;;;;;;;14.63;4.30;;;27.60;99.90;;;;;;5030760;28;20041;-48
2022/07/29 07:29:59;;;;;;;18.48;5.57;;;27.70;99.90;;;;;;5029573;28;20095;-48
2022/07/29 07:32:24;;;;;;;14.82;4.25;;;27.70;99.90;;;;;;5032921;28;20030;-48
2022/07/29 07:34:50;;;;;;;20.15;4.40;;;27.70;99.90;;;;;;5034635;28;20044;-48
2022/07/29 07:37:18;;;;;;;17.25;4.65;;;27.80;99.90;;;;;;5050071;28;20183;-47
2022/07/29 07:39:44;;;;;;;14.70;4.40;;;27.80;99.90;;;;;;5034962;28;20037;-48
2022/07/29 07:42:12;;;;;;;13.23;3.95;;;27.90;99.90;;;;;;5034543;28;20492;-48
2022/07/29 07:44:38;;;;;;;9.88;3.90;;;27.90;99.90;;;;;;5034555;28;20041;-48
2022/07/29 07:47:05;;;;;;;18.10;4.10;;;27.90;99.90;;;;;;5034566;28;20413;-48
2022/07/29 07:49:31;;;;;;;10.80;3.83;;;27.90;99.90;;;;;;5034277;28;20033;-47
2022/07/29 07:51:56;;;;;;;13.85;3.75;;;28.00;99.90;;;;;;5034300;28;20029;-47
2022/07/29 07:54:22;;;;;;;8.15;3.17;;;28.00;99.90;;;;;;5032835;28;20076;-48
2022/07/29 07:56:49;;;;;;;8.07;3.53;;;28.00;99.90;;;;;;5034314;28;20025;-48
2022/07/29 07:59:16;;;;;;;14.60;3.90;;;28.00;99.90;;;;;;5033188;28;20029;-48
2022/07/29 08:01:42;;;;;;;10.57;3.13;;;28.10;99.90;;;;;;5032782;28;20144;-48
2022/07/29 08:04:08;;;;;;;7.30;3.03;;;28.10;99.90;;;;;;5034242;28;20144;-48
2022/07/29 08:06:35;;;;;;;17.77;3.63;;;28.10;99.90;;;;;;5034160;28;20025;-48
2022/07/29 08:09:03;;;;;;;12.18;3.55;;;28.20;99.90;;;;;;5034141;28;20040;-48
2022/07/29 08:11:29;;;;;;;11.40;3.53;;;28.20;99.90;;;;;;5033854;28;20034;-48
2022/07/29 08:13:55;;;;;;;12.38;3.25;;;28.20;99.90;;;;;;5033872;28;20049;-48
2022/07/29 08:16:21;;;;;;;8.63;2.97;;;28.30;99.90;;;;;;5033846;28;20485;-48
2022/07/29 08:18:47;;;;;;;14.02;3.80;;;28.30;99.90;;;;;;5034028;28;20039;-48
2022/07/29 08:21:15;;;;;;;10.85;3.13;;;28.30;99.90;;;;;;5033772;28;20100;-48
2022/07/29 08:23:50;;;;;;;10.38;2.75;;;28.30;99.90;;;;;;5033536;28;20083;-53
2022/07/29 08:26:16;;;;;;;9.73;3.15;;;28.30;99.90;;;;;;5033818;28;20041;-49
2022/07/29 08:28:49;;;;;;;14.13;3.55;;;28.40;99.90;;;;;;5032355;28;20026;-48
2022/07/29 08:31:15;;;;;;;12.25;3.90;;;28.40;99.90;;;;;;5033917;28;20462;-48
2022/07/29 08:33:41;;;;;;;13.75;3.47;;;28.50;99.90;;;;;;5033517;28;20122;-49
2022/07/29 08:36:07;;;;;;;12.13;3.88;;;28.40;99.90;;;;;;5033708;28;20049;-48
2022/07/29 08:38:33;;;;;;;14.15;4.35;;;28.50;99.90;;;;;;5032297;28;20029;-48
2022/07/29 08:41:02;;;;;;;10.40;4.88;;;28.50;99.90;;;;;;5033384;28;20531;-48
2022/07/29 08:43:28;;;;;;;15.43;4.57;;;28.50;99.90;;;;;;5033238;28;20523;-48
2022/07/29 08:45:54;;;;;;;13.85;5.13;;;28.50;99.90;;;;;;5033432;28;20264;-48
2022/07/29 08:48:22;;;;;;;16.63;4.72;;;28.50;99.90;;;;;;5033404;28;20429;-48
2022/07/29 08:50:49;;;;;;;;;;;28.50;99.90;;;;;;5033658;28;20017;-48
2022/07/29 08:53:17;;;;;;;15.45;5.03;;;28.50;99.90;;;;;;5033039;28;19932;-49
2022/07/29 08:55:48;;;;;;;17.23;5.00;;;28.50;99.90;;;;;;5032818;28;20371;-48
2022/07/29 08:58:15;;;;;;;16.90;4.65;;;28.40;99.90;;;;;;5033043;28;20018;-48
2022/07/29 09:00:50;;;;;;;21.90;4.63;;;28.40;99.90;;;;;;5033009;28;20506;-47
2022/07/29 09:03:19;;;;;;;13.25;4.70;;;28.30;99.90;;;;;;5033059;28;20029;-47
2022/07/29 09:05:48;;;;;;;16.75;4.20;;;28.30;99.90;;;;;;5032919;28;20021;-48
2022/07/29 09:08:15;;;;;;;16.77;4.50;;;28.30;99.90;;;;;;5032853;28;20034;-47
2022/07/29 09:10:42;;;;;;;11.70;4.15;;;28.30;99.90;;;;;;5032873;28;20032;-47
2022/07/29 09:13:08;;;;;;;11.15;4.22;;;28.30;99.90;;;;;;5032532;28;20042;-47
2022/07/29 09:15:33;;;;;;;9.05;3.92;;;28.30;99.90;;;;;;5032472;28;20040;-47
2022/07/29 09:18:00;;;;;;;16.30;4.53;;;28.30;99.90;;;;;;5047790;28;20335;-47
2022/07/29 09:21:57;;;;;;;20.90;4.68;;;28.30;99.90;;;;;;5032443;28;20112;-47
2022/07/29 09:23:13;;;;;;;9.70;3.75;;;28.30;99.90;;;;;;5032643;28;20033;-48
2022/07/29 09:25:40;;;;;;;14.07;4.20;;;28.20;99.90;;;;;;5031103;28;20033;-47
2022/07/29 09:28:17;;;;;;;15.13;4.40;;;28.20;99.90;;;;;;5032499;28;20646;-47
2022/07/29 09:30:54;;;;;;;13.15;4.47;;;28.20;99.90;;;;;;5032258;28;20348;-47
2022/07/29 09:33:30;;;;;;;13.63;4.75;;;28.20;99.90;;;;;;5032560;28;20025;-47
2022/07/29 09:36:07;;;;;;;12.70;4.22;;;28.10;99.90;;;;;;5032358;28;20034;-47
2022/07/29 09:38:34;;;;;;;;;;;28.10;99.90;;;;;;5032674;28;20036;-47
2022/07/29 09:41:01;;;;;;;8.80;3.40;;;28.10;99.90;;;;;;5032535;28;19904;-47
2022/07/29 09:43:27;;;;;;;;;;;28.10;99.90;;;;;;5032718;28;20049;-47
2022/07/29 09:45:52;;;;;;;8.68;3.70;;;28.10;99.90;;;;;;5029927;28;20355;-47
2022/07/29 09:48:23;;;;;;;13.27;4.15;;;28.20;99.90;;;;;;5030353;28;20442;-47
2022/07/29 09:50:49;;;;;;;12.48;3.60;;;28.20;99.90;;;;;;5029608;28;20064;-46
2022/07/29 09:53:39;;;;;;;10.10;3.63;;;28.20;99.90;;;;;;5027648;28;20489;-47
2022/07/29 09:56:05;;;;;;;15.45;7.05;;;28.20;99.90;;;;;;5024033;28;20025;-47
2022/07/29 09:58:33;;;;;;;9.10;3.58;;;28.30;99.90;;;;;;5029808;28;20029;-47
2022/07/29 10:00:59;;;;;;;10.98;4.55;;;28.30;99.90;;;;;;5031863;28;20030;-47
2022/07/29 10:03:25;;;;;;;13.25;3.95;;;28.30;99.90;;;;;;5030063;28;20480;-47
2022/07/29 10:06:13;;;;;;;12.88;3.72;;;28.40;99.90;;;;;;5043877;28;20032;-47
2022/07/29 10:08:38;;;;;;;20.90;5.35;;;28.40;99.90;;;;;;5030463;28;20124;-46
2022/07/29 10:11:14;;;;;;;7.90;3.55;;;28.50;99.90;;;;;;5030869;28;20113;-46
2022/07/29 10:13:41;;;;;;;16.35;3.63;;;28.40;99.90;;;;;;5030850;28;20072;-47
2022/07/29 10:16:08;;;;;;;8.20;3.58;;;28.40;99.90;;;;;;5030766;28;20028;-47
2022/07/29 10:18:34;;;;;;;10.85;3.75;;;28.40;99.90;;;;;;5028068;28;20128;-48
2022/07/29 10:21:00;;;;;;;8.73;3.55;;;28.50;99.90;;;;;;5029681;28;20072;-48
2022/07/29 10:23:29;;;;;;;15.27;3.40;;;28.40;99.90;;;;;;5031797;28;20272;-49
2022/07/29 10:25:55;;;;;;;12.30;4.13;;;28.40;99.90;;;;;;5031791;28;20046;-49
2022/07/29 10:28:20;;;;;;;17.40;3.88;;;28.50;99.90;;;;;;5031371;28;20026;-49
2022/07/29 10:30:50;;;;;;;10.52;4.00;;;28.40;99.90;;;;;;5029171;28;20033;-49
2022/07/29 10:33:27;;;;;;;22.38;10.90;;;28.40;99.90;;;;;;5028595;28;20061;-49
2022/07/29 10:35:53;;;;;;;;;;;28.40;99.90;;;;;;5029955;28;20021;-48
2022/07/29 10:38:52;;;;;;;8.18;3.17;;;28.50;99.90;;;;;;5017093;28;19912;-48
2022/07/29 10:41:26;;;;;;;11.48;3.35;;;28.50;99.90;;;;;;5011514;28;20051;-48
2022/07/29 10:44:13;;;;;;;11.32;3.60;;;28.60;99.90;;;;;;5011450;28;20026;-49
2022/07/29 10:46:40;;;;;;;11.75;2.90;;;28.60;99.90;;;;;;5011501;28;20068;-48
2022/07/29 10:49:15;;;;;;;13.05;4.13;;;28.60;99.90;;;;;;5011280;28;20030;-48
2022/07/29 10:52:09;;;;;;;8.07;3.20;;;28.60;99.90;;;;;;5011370;28;20025;-48
2022/07/29 10:54:47;;;;;;;9.73;3.38;;;28.60;99.90;;;;;;5026377;28;20045;-49
2022/07/29 10:57:29;;;;;;;15.50;2.92;;;28.70;99.90;;;;;;5011324;28;20026;-49
2022/07/29 11:00:04;;;;;;;9.98;3.72;;;28.70;99.90;;;;;;5011220;28;20136;-48
2022/07/29 11:02:32;;;;;;;8.75;3.17;;;28.70;99.90;;;;;;5011214;28;20022;-49
2022/07/29 11:05:10;;;;;;;10.10;3.17;;;28.80;99.90;;;;;;5011410;28;20271;-50
2022/07/29 11:07:37;;;;;;;10.90;2.83;;;28.80;99.90;;;;;;5015269;28;20112;-49
2022/07/29 11:10:12;;;;;;;9.77;2.75;;;28.90;99.90;;;;;;5015220;28;20025;-49
2022/07/29 11:12:38;;;;;;;15.77;3.85;;;28.90;99.90;;;;;;5015328;28;20159;-49
2022/07/29 11:15:08;;;;;;;10.18;2.97;;;28.90;99.90;;;;;;5015390;28;20549;-49
2022/07/29 11:18:07;;;;;;;12.43;3.72;;;29.00;99.90;;;;;;5015309;28;20021;-49
2022/07/29 11:20:42;;;;;;;8.73;2.78;;;29.00;99.90;;;;;;5013860;28;20506;-49
2022/07/29 11:23:31;;;;;;;9.38;3.20;;;29.10;99.90;;;;;;5015117;28;20032;-49
2022/07/29 11:26:13;;;;;;;11.98;2.97;;;29.20;99.90;;;;;;5015272;28;20438;-49
2022/07/29 11:29:03;;;;;;;9.80;2.92;;;29.20;99.90;;;;;;5030263;28;20033;-49
2022/07/29 11:31:36;;;;;;;11.38;3.22;;;29.20;99.90;;;;;;5015231;28;20029;-49
2022/07/29 11:34:25;;;;;;;10.65;2.75;;;29.20;99.90;;;;;;5014962;28;20040;-49
2022/07/29 11:37:10;;;;;;;7.45;2.78;;;29.20;99.90;;;;;;5014644;28;20562;-49
2022/07/29 11:39:41;;;;;;;11.57;4.05;;;29.30;99.90;;;;;;5014536;28;20080;-49
2022/07/29 11:42:16;;;;;;;7.43;2.67;;;29.30;99.90;;;;;;5029942;28;20028;-49
2022/07/29 11:45:07;;;;;;;5.93;2.70;;;29.40;99.90;;;;;;5014787;28;20029;-49
2022/07/29 11:48:04;;;;;;;9.00;2.97;;;29.40;99.90;;;;;;5014641;28;20359;-49
2022/07/29 11:50:36;;;;;;;8.75;2.65;;;29.50;99.90;;;;;;5014300;28;20042;-49
2022/07/29 11:53:10;;;;;;;10.00;2.90;;;29.50;99.90;;;;;;5014745;28;20073;-49
2022/07/29 11:55:38;;;;;;;13.20;3.30;;;29.60;99.90;;;;;;5014530;28;20029;-49
2022/07/29 11:58:04;;;;;;;11.73;2.90;;;29.70;99.90;;;;;;5014538;28;20069;-49
2022/07/29 12:00:33;;;;;;;8.65;2.88;;;29.80;99.90;;;;;;5014512;28;20050;-49
2022/07/29 12:03:04;;;;;;;10.90;3.40;;;29.80;99.90;;;;;;5014465;28;20109;-49
2022/07/29 12:05:50;;;;;;;13.32;4.38;;;29.80;99.90;;;;;;5014378;28;20032;-49
2022/07/29 12:08:19;;;;;;;7.68;3.20;;;29.90;99.90;;;;;;5014095;28;20461;-49
2022/07/29 12:10:46;;;;;;;10.93;2.75;;;29.90;99.90;;;;;;5014013;28;20084;-48
2022/07/29 12:13:14;;;;;;;7.43;3.08;;;30.00;99.90;;;;;;5014101;28;20034;-49
2022/07/29 12:15:40;;;;;;;9.55;3.00;;;30.00;99.90;;;;;;5014026;28;20034;-49
2022/07/29 12:18:17;;;;;;;15.40;3.13;;;30.00;99.90;;;;;;5013491;28;20022;-50
2022/07/29 12:20:44;;;;;;;12.77;3.13;;;30.00;99.90;;;;;;5014212;28;20137;-49
2022/07/29 12:23:13;;;;;;;7.07;3.17;;;30.00;99.90;;;;;;5014379;28;20045;-48
2022/07/29 12:25:41;;;;;;;13.73;3.08;;;30.00;99.90;;;;;;5014098;28;20045;-49
2022/07/29 12:28:16;;;;;;;9.00;2.95;;;30.00;99.90;;;;;;5029235;28;20505;-49
2022/07/29 12:30:48;;;;;;;9.38;3.35;;;30.00;99.90;;;;;;5014024;28;20034;-50
2022/07/29 12:33:15;;;;;;;11.85;4.40;;;30.00;99.90;;;;;;5013998;28;20038;-50
2022/07/29 12:35:44;;;;;;;12.52;3.25;;;30.00;99.90;;;;;;5014137;28;20030;-49
2022/07/29 12:38:12;;;;;;;8.40;3.50;;;30.00;99.90;;;;;;5013873;28;20046;-49
2022/07/29 12:40:38;;;;;;;8.25;2.88;;;30.00;99.90;;;;;;5013835;28;20084;-49
2022/07/29 12:43:30;;;;;;;8.20;2.90;;;30.00;99.90;;;;;;5013853;28;20371;-48
2022/07/29 12:45:57;;;;;;;7.78;3.60;;;30.00;99.90;;;;;;5011899;28;20042;-49
2022/07/29 12:48:39;;;;;;;13.40;4.15;;;30.00;99.90;;;;;;5013693;28;20029;-49
2022/07/29 12:51:08;;;;;;;8.43;2.85;;;29.90;99.90;;;;;;5013704;28;20429;-50
2022/07/29 12:53:35;;;;;;;7.28;3.45;;;29.90;99.90;;;;;;5013427;28;20486;-50